createdAt,value
2022-12-05T00:00:06.321Z,17.00
2022-12-05T00:03:06.635Z,17.30
2022-12-05T00:05:46.608Z,17.00
2022-12-05T00:08:22.973Z,16.00
2022-12-05T00:10:58.893Z,15.80
2022-12-05T00:13:34.994Z,14.50
2022-12-05T00:16:17.997Z,16.40
2022-12-05T00:18:54.523Z,15.90
2022-12-05T00:21:35.081Z,16.30
2022-12-05T00:24:16.901Z,18.60
2022-12-05T00:29:26.959Z,17.30
2022-12-05T00:32:02.941Z,15.60
2022-12-05T00:34:38.902Z,18.40
2022-12-05T00:37:14.769Z,16.50
2022-12-05T00:39:50.933Z,16.60
2022-12-05T00:42:26.752Z,17.10
2022-12-05T00:45:02.702Z,18.70
2022-12-05T00:47:40.074Z,20.00
2022-12-05T00:50:16.142Z,18.70
2022-12-05T00:52:52.864Z,19.30
2022-12-05T00:55:28.737Z,18.80
2022-12-05T00:58:04.573Z,20.10
2022-12-05T01:00:40.673Z,17.60
2022-12-05T01:03:17.496Z,17.70
2022-12-05T01:05:53.584Z,16.70
2022-12-05T01:08:29.743Z,18.50
2022-12-05T01:11:08.108Z,15.50
2022-12-05T01:13:44.416Z,14.90
2022-12-05T01:16:25.313Z,19.10
2022-12-05T01:19:03.790Z,17.80
2022-12-05T01:21:39.848Z,16.70
2022-12-05T01:24:17.454Z,17.60
2022-12-05T01:26:54.226Z,18.20
2022-12-05T01:29:30.817Z,18.20
2022-12-05T01:32:08.484Z,16.40
2022-12-05T01:34:44.762Z,16.90
2022-12-05T01:37:20.836Z,16.60
2022-12-05T01:39:57.036Z,19.10
2022-12-05T01:42:34.977Z,18.90
2022-12-05T01:45:23.932Z,19.80
2022-12-05T01:48:00.322Z,19.30
2022-12-05T01:50:37.282Z,16.10
2022-12-05T01:53:13.299Z,17.40
2022-12-05T01:55:51.798Z,16.20
2022-12-05T01:58:33.839Z,18.80
2022-12-05T02:01:10.146Z,13.80
2022-12-05T02:03:51.837Z,16.40
2022-12-05T02:06:29.812Z,14.80
2022-12-05T02:09:06.262Z,16.50
2022-12-05T02:11:54.295Z,18.40
2022-12-05T02:14:46.097Z,15.80
2022-12-05T02:17:35.784Z,15.90
2022-12-05T02:20:37.029Z,16.90
2022-12-05T02:23:41.094Z,17.80
2022-12-05T02:26:54.408Z,16.70
2022-12-05T02:30:08.725Z,15.40
2022-12-05T02:33:19.788Z,14.90
2022-12-05T02:36:05.916Z,14.40
2022-12-05T02:38:52.425Z,16.20
2022-12-05T02:41:36.609Z,15.30
2022-12-05T02:44:24.019Z,17.80
2022-12-05T02:47:01.925Z,15.60
2022-12-05T02:49:41.887Z,15.80
2022-12-05T02:52:20.883Z,17.60
2022-12-05T02:54:59.234Z,15.30
2022-12-05T02:57:37.557Z,17.10
2022-12-05T03:00:17.997Z,17.60
2022-12-05T03:03:00.755Z,16.40
2022-12-05T03:05:48.332Z,15.30
2022-12-05T03:08:30.914Z,15.00
2022-12-05T03:11:08.027Z,14.00
2022-12-05T03:13:49.937Z,16.20
2022-12-05T03:19:12.606Z,14.30
2022-12-05T03:21:55.262Z,16.90
2022-12-05T03:24:32.531Z,16.30
2022-12-05T03:27:20.722Z,14.90
2022-12-05T03:30:04.441Z,15.70
2022-12-05T03:32:51.045Z,16.00
2022-12-05T03:35:43.874Z,14.40
2022-12-05T03:38:27.385Z,13.50
2022-12-05T03:41:21.085Z,16.30
2022-12-05T03:44:04.312Z,17.20
2022-12-05T03:46:45.999Z,14.50
2022-12-05T03:49:33.684Z,16.20
2022-12-05T03:52:18.077Z,17.70
2022-12-05T03:55:00.767Z,16.20
2022-12-05T03:57:45.160Z,14.30
2022-12-05T04:00:25.917Z,13.10
2022-12-05T04:03:10.223Z,15.70
2022-12-05T04:05:55.107Z,12.30
2022-12-05T04:08:38.512Z,14.10
2022-12-05T04:11:33.563Z,12.80
2022-12-05T04:14:16.284Z,14.50
2022-12-05T04:17:05.977Z,15.30
2022-12-05T04:20:10.618Z,12.60
2022-12-05T04:22:48.125Z,14.90
2022-12-05T04:25:37.184Z,13.70
2022-12-05T04:28:33.669Z,12.40
2022-12-05T04:31:17.780Z,12.80
2022-12-05T04:34:01.834Z,14.90
2022-12-05T04:36:44.559Z,12.90
2022-12-05T04:39:28.929Z,13.30
2022-12-05T04:42:10.943Z,15.70
2022-12-05T04:47:37.038Z,12.40
2022-12-05T04:50:17.416Z,14.00
2022-12-05T04:52:59.130Z,14.20
2022-12-05T04:55:40.587Z,14.00
2022-12-05T04:58:22.692Z,13.90
2022-12-05T05:01:08.294Z,14.60
2022-12-05T05:03:52.406Z,14.50
2022-12-05T05:06:28.695Z,15.00
2022-12-05T05:09:04.935Z,14.90
2022-12-05T05:11:41.880Z,16.40
2022-12-05T05:14:17.872Z,15.30
2022-12-05T05:16:53.953Z,14.50
2022-12-05T05:19:30.598Z,10.50
2022-12-05T05:22:06.450Z,17.70
2022-12-05T05:24:42.459Z,14.40
2022-12-05T05:27:18.473Z,14.40
2022-12-05T05:29:54.486Z,15.90
2022-12-05T05:32:30.371Z,14.00
2022-12-05T05:35:06.686Z,15.50
2022-12-05T05:37:42.912Z,14.30
2022-12-05T05:40:19.992Z,14.80
2022-12-05T05:42:56.055Z,14.40
2022-12-05T05:45:31.887Z,18.10
2022-12-05T05:48:08.330Z,17.10
2022-12-05T05:50:44.270Z,14.60
2022-12-05T05:53:20.207Z,16.20
2022-12-05T05:55:56.232Z,13.10
2022-12-05T05:58:31.996Z,15.70
2022-12-05T06:01:13.973Z,14.70
2022-12-05T06:03:51.728Z,14.90
2022-12-05T06:06:28.179Z,14.80
2022-12-05T06:09:04.031Z,15.50
2022-12-05T06:11:39.870Z,16.00
2022-12-05T06:14:15.847Z,16.40
2022-12-05T06:16:51.720Z,15.00
2022-12-05T06:19:27.737Z,16.30
2022-12-05T06:22:03.618Z,14.90
2022-12-05T06:24:39.565Z,16.90
2022-12-05T06:27:15.667Z,16.40
2022-12-05T06:29:52.980Z,17.00
2022-12-05T06:32:30.904Z,15.20
2022-12-05T06:35:15.352Z,16.30
2022-12-05T06:37:51.305Z,14.40
2022-12-05T06:40:28.143Z,14.50
2022-12-05T06:43:04.392Z,14.80
2022-12-05T06:45:41.582Z,16.60
2022-12-05T06:48:17.593Z,15.60
2022-12-05T06:50:57.433Z,15.20
2022-12-05T06:53:33.486Z,13.90
2022-12-05T06:56:15.288Z,12.80
2022-12-05T06:58:53.645Z,12.50
2022-12-05T07:01:42.984Z,13.00
2022-12-05T07:04:24.527Z,13.70
2022-12-05T07:07:02.269Z,14.40
2022-12-05T07:09:48.594Z,14.50
2022-12-05T07:12:24.639Z,16.70
2022-12-05T07:15:00.652Z,14.80
2022-12-05T07:17:40.438Z,14.60
2022-12-05T07:20:18.032Z,14.00
2022-12-05T07:22:53.813Z,13.80
2022-12-05T07:25:29.782Z,15.90
2022-12-05T07:28:06.213Z,12.90
2022-12-05T07:30:42.188Z,14.00
2022-12-05T07:33:18.047Z,14.70
2022-12-05T07:35:53.850Z,9.40
2022-12-05T07:38:30.137Z,13.30
2022-12-05T07:41:13.263Z,13.30
2022-12-05T07:43:49.398Z,13.40
2022-12-05T07:46:26.042Z,16.90
2022-12-05T07:49:01.874Z,14.50
2022-12-05T07:51:38.991Z,14.60
2022-12-05T07:54:14.867Z,13.50
2022-12-05T07:56:50.729Z,15.00
2022-12-05T07:59:26.628Z,11.10
2022-12-05T08:02:02.630Z,14.00
2022-12-05T08:04:38.468Z,15.00
2022-12-05T08:07:15.893Z,14.20
2022-12-05T08:09:51.821Z,14.80
2022-12-05T08:12:28.223Z,14.90
2022-12-05T08:15:04.205Z,14.90
2022-12-05T08:17:40.186Z,14.90
2022-12-05T08:20:18.175Z,12.80
2022-12-05T08:22:55.989Z,13.90
2022-12-05T08:25:31.843Z,14.50
2022-12-05T08:28:08.036Z,14.30
2022-12-05T08:30:44.159Z,13.60
2022-12-05T08:33:20.136Z,14.50
2022-12-05T08:35:56.843Z,11.60
2022-12-05T08:38:33.042Z,13.60
2022-12-05T08:41:13.697Z,12.60
2022-12-05T08:43:49.884Z,13.80
2022-12-05T08:46:26.168Z,14.80
2022-12-05T08:49:02.622Z,14.60
2022-12-05T08:51:39.190Z,13.30
2022-12-05T08:54:15.600Z,13.00
2022-12-05T08:56:54.888Z,13.60
2022-12-05T08:59:32.366Z,12.80
2022-12-05T09:02:09.468Z,13.60
2022-12-05T09:04:49.536Z,14.50
2022-12-05T09:07:29.225Z,14.10
2022-12-05T09:10:05.898Z,14.70
2022-12-05T09:12:43.285Z,14.70
2022-12-05T09:15:19.993Z,14.60
2022-12-05T09:17:55.799Z,15.00
2022-12-05T09:20:31.703Z,14.00
2022-12-05T09:23:11.640Z,14.60
2022-12-05T09:25:58.349Z,14.00
2022-12-05T09:28:35.279Z,13.50
2022-12-05T09:31:14.398Z,13.40
2022-12-05T09:33:52.708Z,15.10
2022-12-05T09:36:33.130Z,14.30
2022-12-05T09:39:11.436Z,13.30
2022-12-05T09:42:27.472Z,14.30
2022-12-05T09:45:27.685Z,14.10
2022-12-05T09:48:11.506Z,13.50
2022-12-05T09:50:55.498Z,15.20
2022-12-05T09:53:36.904Z,15.70
2022-12-05T09:56:28.832Z,14.70
2022-12-05T09:59:05.855Z,16.50
2022-12-05T10:01:53.564Z,14.30
2022-12-05T10:05:03.519Z,15.80
2022-12-05T10:07:51.555Z,16.30
2022-12-05T10:10:41.848Z,15.70
2022-12-05T10:13:46.416Z,14.90
2022-12-05T10:16:35.910Z,16.10
2022-12-05T10:19:20.020Z,15.40
2022-12-05T10:22:03.599Z,14.50
2022-12-05T10:24:47.372Z,14.30
2022-12-05T10:27:38.210Z,15.60
2022-12-05T10:30:22.687Z,16.00
2022-12-05T10:33:06.449Z,16.40
2022-12-05T10:35:46.223Z,16.50
2022-12-05T10:38:31.027Z,16.10
2022-12-05T10:41:14.370Z,14.80
2022-12-05T10:43:50.766Z,15.50
2022-12-05T10:46:27.206Z,13.90
2022-12-05T10:49:04.046Z,14.90
2022-12-05T10:51:40.814Z,14.30
2022-12-05T10:54:25.687Z,15.80
2022-12-05T10:57:01.982Z,15.70
2022-12-05T10:59:51.697Z,13.70
2022-12-05T11:02:34.329Z,14.50
2022-12-05T11:05:12.905Z,15.00
2022-12-05T11:07:53.429Z,13.60
2022-12-05T11:10:35.864Z,12.90
2022-12-05T11:13:27.369Z,14.90
2022-12-05T11:16:04.122Z,13.60
2022-12-05T11:18:41.908Z,13.80
2022-12-05T11:21:20.180Z,14.50
2022-12-05T11:23:56.342Z,15.00
2022-12-05T11:26:42.769Z,14.90
2022-12-05T11:29:40.255Z,13.20
2022-12-05T11:32:26.665Z,14.00
2022-12-05T11:35:25.998Z,14.30
2022-12-05T11:38:06.625Z,13.20
2022-12-05T11:40:54.970Z,14.70
2022-12-05T11:43:59.642Z,14.20
2022-12-05T11:46:54.630Z,14.90
2022-12-05T11:50:06.158Z,13.00
2022-12-05T11:53:05.941Z,13.50
2022-12-05T11:55:52.370Z,13.40
2022-12-05T11:58:56.003Z,14.60
2022-12-05T12:01:53.262Z,14.70
2022-12-05T12:05:00.210Z,15.20
2022-12-05T12:07:57.018Z,13.90
2022-12-05T12:10:45.564Z,14.10
2022-12-05T12:13:46.746Z,13.50
2022-12-05T12:16:35.012Z,12.90
2022-12-05T12:19:39.829Z,13.20
2022-12-05T12:22:44.918Z,14.70
2022-12-05T12:25:43.576Z,14.90
2022-12-05T12:28:40.239Z,15.10
2022-12-05T12:31:42.646Z,16.10
2022-12-05T12:34:59.934Z,13.80
2022-12-05T12:37:56.510Z,14.60
2022-12-05T12:40:47.665Z,16.10
2022-12-05T12:43:53.728Z,15.80
2022-12-05T12:46:47.543Z,15.10
2022-12-05T12:50:01.360Z,14.40
2022-12-05T12:52:59.540Z,16.30
2022-12-05T12:55:47.118Z,15.90
2022-12-05T12:58:46.407Z,15.70
2022-12-05T13:01:42.048Z,15.20
2022-12-05T13:04:24.956Z,15.10
2022-12-05T13:07:11.845Z,15.80
2022-12-05T13:09:55.766Z,15.30
2022-12-05T13:12:39.236Z,16.40
2022-12-05T13:15:32.679Z,15.90
2022-12-05T13:18:17.223Z,15.30
2022-12-05T13:20:58.448Z,15.20
2022-12-05T13:23:42.415Z,15.50
2022-12-05T13:26:19.711Z,15.70
2022-12-05T13:28:59.769Z,16.20
2022-12-05T13:31:46.012Z,16.10
2022-12-05T13:34:55.804Z,15.20
2022-12-05T13:37:52.644Z,15.40
2022-12-05T13:40:52.439Z,14.50
2022-12-05T13:43:32.887Z,15.10
2022-12-05T13:46:20.177Z,15.60
2022-12-05T13:49:11.648Z,14.60
2022-12-05T13:51:51.247Z,15.70
2022-12-05T13:54:33.386Z,15.70
2022-12-05T13:57:29.843Z,15.40
2022-12-05T14:00:31.543Z,15.90
2022-12-05T14:03:19.829Z,15.60
2022-12-05T14:05:59.737Z,15.10
2022-12-05T14:08:59.518Z,16.20
2022-12-05T14:11:36.026Z,16.00
2022-12-05T14:14:14.645Z,15.50
2022-12-05T14:16:53.298Z,15.10
2022-12-05T14:20:01.455Z,15.60
2022-12-05T14:23:09.653Z,15.10
2022-12-05T14:26:14.672Z,16.00
2022-12-05T14:29:16.537Z,16.40
2022-12-05T14:32:19.654Z,15.20
2022-12-05T14:35:13.514Z,15.70
2022-12-05T14:38:02.955Z,16.20
2022-12-05T14:40:43.603Z,15.90
2022-12-05T14:43:30.860Z,16.10
2022-12-05T14:46:16.639Z,16.20
2022-12-05T14:48:52.954Z,16.20
2022-12-05T14:52:01.058Z,17.10
2022-12-05T14:54:38.894Z,16.90
2022-12-05T14:57:18.766Z,17.60
2022-12-05T15:00:02.485Z,16.80
2022-12-05T15:02:48.014Z,16.70
2022-12-05T15:05:31.356Z,16.30
2022-12-05T15:08:08.601Z,17.80
2022-12-05T15:10:47.132Z,18.00
2022-12-05T15:13:28.526Z,17.90
2022-12-05T15:16:17.962Z,19.20
2022-12-05T15:19:01.304Z,18.00
2022-12-05T15:21:43.719Z,18.40
2022-12-05T15:24:21.152Z,18.50
2022-12-05T15:26:59.695Z,18.30
2022-12-05T15:29:36.208Z,18.00
2022-12-05T15:32:28.793Z,18.40
2022-12-05T15:35:14.146Z,18.20
2022-12-05T15:37:57.616Z,48.30
2022-12-05T15:40:38.898Z,41.90
2022-12-05T15:43:37.529Z,19.90
2022-12-05T15:46:30.518Z,20.50
2022-12-05T15:49:25.288Z,19.80
2022-12-05T15:52:15.498Z,19.60
2022-12-05T15:54:53.772Z,20.70
2022-12-05T15:57:41.397Z,20.90
2022-12-05T16:00:26.119Z,20.40
2022-12-05T16:03:13.783Z,68.80
2022-12-05T16:05:59.518Z,32.90
2022-12-05T16:08:42.161Z,21.30
2022-12-05T16:11:21.660Z,20.90
2022-12-05T16:14:03.741Z,21.50
2022-12-05T16:16:42.307Z,22.10
2022-12-05T16:19:25.170Z,21.00
2022-12-05T16:22:20.385Z,19.90
2022-12-05T16:25:13.825Z,20.30
2022-12-05T16:28:03.285Z,22.20
2022-12-05T16:30:40.055Z,22.20
2022-12-05T16:33:20.633Z,22.30
2022-12-05T16:35:58.155Z,22.20
2022-12-05T16:38:34.222Z,21.70
2022-12-05T16:41:11.550Z,23.10
2022-12-05T16:43:53.022Z,21.40
2022-12-05T16:46:51.084Z,23.30
2022-12-05T16:49:45.794Z,23.20
2022-12-05T16:52:23.393Z,23.10
2022-12-05T16:54:59.696Z,24.20
2022-12-05T16:57:35.831Z,25.20
2022-12-05T17:00:19.963Z,26.20
2022-12-05T17:03:18.529Z,24.50
2022-12-05T17:05:52.351Z,24.20
2022-12-05T17:08:29.641Z,30.60
2022-12-05T17:11:06.964Z,26.70
2022-12-05T17:13:45.300Z,27.20
2022-12-05T17:16:22.392Z,28.80
2022-12-05T17:18:58.889Z,28.30
2022-12-05T17:21:36.960Z,26.80
2022-12-05T17:24:19.004Z,27.70
2022-12-05T17:26:54.984Z,26.90
2022-12-05T17:29:35.410Z,28.40
2022-12-05T17:32:14.278Z,27.20
2022-12-05T17:34:51.005Z,27.30
2022-12-05T17:37:27.163Z,27.30
2022-12-05T17:40:03.003Z,27.10
2022-12-05T17:42:38.976Z,27.90
2022-12-05T17:45:19.066Z,27.80
2022-12-05T17:47:55.393Z,27.30
2022-12-05T17:50:31.927Z,28.60
2022-12-05T17:53:07.919Z,28.40
2022-12-05T17:55:44.543Z,27.10
2022-12-05T17:58:21.286Z,27.90
2022-12-05T18:00:57.406Z,29.70
2022-12-05T18:03:34.159Z,29.90
2022-12-05T18:06:12.338Z,29.20
2022-12-05T18:08:49.850Z,29.60
2022-12-05T18:11:25.633Z,29.40
2022-12-05T18:14:01.978Z,29.40
2022-12-05T18:16:38.152Z,29.00
2022-12-05T18:19:14.444Z,29.40
2022-12-05T18:21:51.095Z,28.10
2022-12-05T18:24:27.176Z,26.60
2022-12-05T18:27:03.423Z,27.70
2022-12-05T18:29:39.702Z,28.40
2022-12-05T18:32:15.966Z,28.30
2022-12-05T18:34:51.922Z,31.00
2022-12-05T18:37:34.522Z,31.40
2022-12-05T18:40:15.278Z,31.20
2022-12-05T18:42:51.253Z,30.80
2022-12-05T18:45:27.418Z,33.10
2022-12-05T18:48:31.379Z,33.50
2022-12-05T18:51:09.482Z,31.80
2022-12-05T18:53:51.908Z,32.10
2022-12-05T18:56:34.754Z,33.10
2022-12-05T18:59:17.356Z,31.90
2022-12-05T19:01:54.127Z,32.70
2022-12-05T19:04:31.522Z,32.00
2022-12-05T19:07:07.876Z,34.20
2022-12-05T19:09:44.069Z,33.60
2022-12-05T19:12:20.198Z,34.00
2022-12-05T19:14:56.467Z,33.40
2022-12-05T19:17:33.436Z,33.10
2022-12-05T19:20:12.771Z,34.10
2022-12-05T19:22:48.832Z,32.40
2022-12-05T19:25:24.716Z,31.60
2022-12-05T19:28:00.641Z,32.80
2022-12-05T19:30:36.600Z,32.70
2022-12-05T19:33:12.384Z,33.00
2022-12-05T19:35:48.415Z,32.90
2022-12-05T19:38:24.409Z,33.70
2022-12-05T19:41:02.522Z,31.90
2022-12-05T19:43:40.431Z,35.30
2022-12-05T19:46:20.623Z,34.40
2022-12-05T19:48:58.205Z,33.80
2022-12-05T19:51:35.559Z,33.10
2022-12-05T19:54:14.703Z,32.20
2022-12-05T19:56:52.103Z,32.10
2022-12-05T19:59:28.247Z,31.10
2022-12-05T20:02:04.411Z,32.30
2022-12-05T20:04:41.457Z,32.10
2022-12-05T20:07:17.824Z,31.90
2022-12-05T20:09:54.024Z,33.50
2022-12-05T20:12:29.928Z,34.20
2022-12-05T20:15:06.796Z,35.40
2022-12-05T20:17:42.755Z,35.40
2022-12-05T20:20:19.468Z,36.40
2022-12-05T20:22:56.410Z,35.10
2022-12-05T20:25:36.329Z,34.70
2022-12-05T20:28:13.437Z,36.50
2022-12-05T20:30:49.865Z,36.30
2022-12-05T20:33:25.858Z,36.50
2022-12-05T20:36:06.164Z,36.80
2022-12-05T20:38:42.688Z,36.00
2022-12-05T20:41:21.781Z,37.70
2022-12-05T20:44:01.782Z,38.10
2022-12-05T20:46:38.027Z,37.30
2022-12-05T20:49:16.086Z,38.00
2022-12-05T20:51:52.301Z,36.10
2022-12-05T20:54:28.972Z,37.80
2022-12-05T20:57:05.442Z,37.70
2022-12-05T20:59:42.009Z,36.80
2022-12-05T21:02:18.266Z,37.50
2022-12-05T21:04:54.435Z,37.20
2022-12-05T21:07:31.889Z,37.00
2022-12-05T21:10:10.540Z,37.10
2022-12-05T21:12:46.806Z,36.10
2022-12-05T21:15:22.934Z,37.50
2022-12-05T21:17:59.332Z,36.90
2022-12-05T21:20:40.418Z,38.10
2022-12-05T21:23:18.314Z,37.30
2022-12-05T21:25:54.760Z,37.00
2022-12-05T21:28:32.265Z,36.60
2022-12-05T21:31:16.705Z,38.10
2022-12-05T21:33:56.298Z,37.60
2022-12-05T21:36:36.397Z,36.60
2022-12-05T21:39:12.608Z,36.50
2022-12-05T21:41:48.697Z,36.40
2022-12-05T21:44:24.789Z,37.60
2022-12-05T21:47:00.644Z,35.20
2022-12-05T21:49:36.603Z,37.00
2022-12-05T21:52:12.428Z,36.70
2022-12-05T21:54:48.419Z,36.20
2022-12-05T21:57:24.387Z,35.90
2022-12-05T22:00:00.611Z,35.20
2022-12-05T22:02:37.147Z,35.30
2022-12-05T22:05:14.642Z,35.40
2022-12-05T22:07:51.395Z,34.90
2022-12-05T22:10:27.327Z,36.10
2022-12-05T22:13:03.765Z,34.60
2022-12-05T22:15:39.855Z,36.40
2022-12-05T22:18:16.219Z,36.30
2022-12-05T22:21:00.743Z,35.60
2022-12-05T22:23:38.369Z,35.60
2022-12-05T22:26:18.973Z,35.80
2022-12-05T22:28:58.495Z,35.80
2022-12-05T22:31:34.585Z,35.40
2022-12-05T22:34:10.994Z,36.10
2022-12-05T22:36:49.099Z,37.10
2022-12-05T22:39:25.062Z,36.50
2022-12-05T22:42:01.787Z,35.50
2022-12-05T22:44:37.686Z,35.50
2022-12-05T22:47:13.846Z,36.50
2022-12-05T22:49:49.918Z,36.70
2022-12-05T22:52:26.070Z,34.80
2022-12-05T22:55:02.131Z,35.20
2022-12-05T22:57:38.290Z,35.30
2022-12-05T23:00:18.283Z,35.70
2022-12-05T23:03:33.759Z,34.90
2022-12-05T23:06:27.716Z,33.40
2022-12-05T23:09:04.815Z,34.10
2022-12-05T23:11:40.766Z,33.30
2022-12-05T23:14:16.420Z,34.10
2022-12-05T23:16:51.918Z,35.40
2022-12-05T23:19:27.758Z,36.80
2022-12-05T23:22:03.469Z,37.20
2022-12-05T23:24:38.853Z,38.20
2022-12-05T23:27:14.196Z,38.40
2022-12-05T23:29:49.643Z,37.70
2022-12-05T23:32:25.088Z,40.90
2022-12-05T23:35:00.533Z,40.90
2022-12-05T23:37:36.388Z,42.80
2022-12-05T23:40:14.180Z,43.30
2022-12-05T23:42:49.527Z,44.90
2022-12-05T23:45:24.972Z,49.20
2022-12-05T23:48:04.381Z,55.00
2022-12-05T23:50:40.467Z,55.20
2022-12-05T23:53:15.810Z,54.40
2022-12-05T23:55:51.253Z,54.60
2022-12-05T23:58:26.600Z,58.00
